createdAt,value
2023-01-22T00:01:44.590Z,8.31
2023-01-22T00:04:12.460Z,8.31
2023-01-22T00:06:40.306Z,8.29
2023-01-22T00:09:09.667Z,8.30
2023-01-22T00:11:37.570Z,8.29
2023-01-22T00:14:05.860Z,8.13
2023-01-22T00:16:33.791Z,8.26
2023-01-22T00:19:01.689Z,8.26
2023-01-22T00:21:29.568Z,8.28
2023-01-22T00:23:57.453Z,8.27
2023-01-22T00:26:26.772Z,8.29
2023-01-22T00:28:54.642Z,8.28
2023-01-22T00:31:23.675Z,8.32
2023-01-22T00:33:51.721Z,8.30
2023-01-22T00:36:20.435Z,8.33
2023-01-22T00:38:48.273Z,8.34
2023-01-22T00:41:16.311Z,8.37
2023-01-22T00:43:45.574Z,8.39
2023-01-22T00:46:14.862Z,8.40
2023-01-22T00:48:42.853Z,8.42
2023-01-22T00:51:13.031Z,8.44
2023-01-22T00:53:41.465Z,8.45
2023-01-22T00:56:09.362Z,8.45
2023-01-22T00:58:37.225Z,8.31
2023-01-22T01:01:07.233Z,8.46
2023-01-22T01:03:36.737Z,8.45
2023-01-22T01:06:05.850Z,8.47
2023-01-22T01:08:34.551Z,8.46
2023-01-22T01:11:03.772Z,8.43
2023-01-22T01:13:33.067Z,8.42
2023-01-22T01:16:01.986Z,8.37
2023-01-22T01:18:31.718Z,8.35
2023-01-22T01:20:59.901Z,8.32
2023-01-22T01:23:28.307Z,8.30
2023-01-22T01:25:56.172Z,8.31
2023-01-22T01:28:24.931Z,8.32
2023-01-22T01:30:52.827Z,8.32
2023-01-22T01:33:20.815Z,8.30
2023-01-22T01:35:50.178Z,8.31
2023-01-22T01:38:18.077Z,8.29
2023-01-22T01:40:46.121Z,8.26
2023-01-22T01:43:17.449Z,8.26
2023-01-22T01:45:45.309Z,8.22
2023-01-22T01:48:17.821Z,8.23
2023-01-22T01:50:47.337Z,8.22
2023-01-22T01:53:16.670Z,8.23
2023-01-22T01:55:44.561Z,8.23
2023-01-22T01:58:18.447Z,8.26
2023-01-22T02:00:46.385Z,8.28
2023-01-22T02:03:14.347Z,8.31
2023-01-22T02:05:42.268Z,8.34
2023-01-22T02:08:10.184Z,8.30
2023-01-22T02:10:39.967Z,8.36
2023-01-22T02:13:09.910Z,8.37
2023-01-22T02:15:38.192Z,8.37
2023-01-22T02:18:06.103Z,8.38
2023-01-22T02:20:36.572Z,8.41
2023-01-22T02:23:04.452Z,8.40
2023-01-22T02:25:33.873Z,8.41
2023-01-22T02:28:01.795Z,8.40
2023-01-22T02:30:29.733Z,8.39
2023-01-22T02:32:57.667Z,8.38
2023-01-22T02:35:25.534Z,8.34
2023-01-22T02:37:54.834Z,8.33
2023-01-22T02:40:22.770Z,8.32
2023-01-22T02:42:50.599Z,8.34
2023-01-22T02:45:18.616Z,8.33
2023-01-22T02:47:46.465Z,8.31
2023-01-22T02:50:14.320Z,8.31
2023-01-22T02:52:42.226Z,8.30
2023-01-22T02:55:11.588Z,8.32
2023-01-22T02:57:39.451Z,8.33
2023-01-22T03:00:09.266Z,8.36
2023-01-22T03:02:37.141Z,8.38
2023-01-22T03:05:05.256Z,8.39
2023-01-22T03:07:42.186Z,8.38
2023-01-22T03:10:13.618Z,8.40
2023-01-22T03:12:59.025Z,8.38
2023-01-22T03:15:44.330Z,8.37
2023-01-22T03:18:29.920Z,8.35
2023-01-22T03:21:16.854Z,8.36
2023-01-22T03:23:45.569Z,8.33
2023-01-22T03:26:15.205Z,8.34
2023-01-22T03:28:43.158Z,8.34
2023-01-22T03:31:11.098Z,8.33
2023-01-22T03:33:39.036Z,8.32
2023-01-22T03:36:09.029Z,8.28
2023-01-22T03:38:36.957Z,8.26
2023-01-22T03:41:05.789Z,8.24
2023-01-22T03:43:35.361Z,8.22
2023-01-22T03:46:04.773Z,8.22
2023-01-22T03:48:32.831Z,8.19
2023-01-22T03:51:06.063Z,8.20
2023-01-22T03:53:34.052Z,8.20
2023-01-22T03:56:02.822Z,8.24
2023-01-22T03:58:30.812Z,8.26
2023-01-22T04:01:01.815Z,8.28
2023-01-22T04:03:30.097Z,8.31
2023-01-22T04:06:00.211Z,8.33
2023-01-22T04:08:29.038Z,8.35
2023-01-22T04:10:57.027Z,8.38
2023-01-22T04:13:25.040Z,8.41
2023-01-22T04:15:52.996Z,8.42
2023-01-22T04:18:22.271Z,8.44
2023-01-22T04:20:50.228Z,8.44
2023-01-22T04:23:18.207Z,8.46
2023-01-22T04:25:46.233Z,8.44
2023-01-22T04:28:14.755Z,8.43
2023-01-22T04:30:42.899Z,8.42
2023-01-22T04:33:10.837Z,8.37
2023-01-22T04:35:40.238Z,8.35
2023-01-22T04:38:08.490Z,8.35
2023-01-22T04:40:36.357Z,8.33
2023-01-22T04:43:04.297Z,8.32
2023-01-22T04:45:32.284Z,8.34
2023-01-22T04:48:00.689Z,8.35
2023-01-22T04:50:29.490Z,8.36
2023-01-22T04:52:58.831Z,8.36
2023-01-22T04:55:26.913Z,8.37
2023-01-22T04:57:55.303Z,8.35
2023-01-22T05:00:23.361Z,8.33
2023-01-22T05:02:51.288Z,8.28
2023-01-22T05:05:19.219Z,8.30
2023-01-22T05:07:47.076Z,8.30
2023-01-22T05:10:17.340Z,8.31
2023-01-22T05:12:45.450Z,8.28
2023-01-22T05:15:23.587Z,8.27
2023-01-22T05:17:52.231Z,8.24
2023-01-22T05:20:20.505Z,8.05
2023-01-22T05:22:48.581Z,8.23
2023-01-22T05:25:17.969Z,8.25
2023-01-22T05:27:45.818Z,8.26
2023-01-22T05:30:14.414Z,8.27
2023-01-22T05:32:42.426Z,8.28
2023-01-22T05:35:10.891Z,8.31
2023-01-22T05:37:38.771Z,8.31
2023-01-22T05:40:08.072Z,8.32
2023-01-22T05:42:37.292Z,8.32
2023-01-22T05:45:05.859Z,8.37
2023-01-22T05:47:33.760Z,8.41
2023-01-22T05:50:01.628Z,8.46
2023-01-22T05:52:29.474Z,8.47
2023-01-22T05:54:59.905Z,8.52
2023-01-22T05:57:29.743Z,8.57
2023-01-22T05:59:59.039Z,8.61
2023-01-22T06:02:26.958Z,8.61
2023-01-22T06:04:54.832Z,8.64
2023-01-22T06:07:22.711Z,8.69
2023-01-22T06:09:50.639Z,8.72
2023-01-22T06:12:18.541Z,8.75
2023-01-22T06:14:46.462Z,8.76
2023-01-22T06:17:15.749Z,8.77
2023-01-22T06:19:43.618Z,8.79
2023-01-22T06:22:11.698Z,8.81
2023-01-22T06:24:39.983Z,8.84
2023-01-22T06:27:07.856Z,8.84
2023-01-22T06:29:35.774Z,8.84
2023-01-22T06:32:03.688Z,8.82
2023-01-22T06:34:32.961Z,8.84
2023-01-22T06:37:00.862Z,8.84
2023-01-22T06:39:28.816Z,8.87
2023-01-22T06:41:56.742Z,8.86
2023-01-22T06:44:24.712Z,8.85
2023-01-22T06:46:52.613Z,8.84
2023-01-22T06:49:20.647Z,8.83
2023-01-22T06:51:49.905Z,8.84
2023-01-22T06:54:17.795Z,8.82
2023-01-22T06:56:45.651Z,8.83
2023-01-22T06:59:13.523Z,8.78
2023-01-22T07:01:42.233Z,8.75
2023-01-22T07:04:10.836Z,8.73
2023-01-22T07:06:38.940Z,8.73
2023-01-22T07:09:08.196Z,8.74
2023-01-22T07:11:36.058Z,8.75
2023-01-22T07:14:03.955Z,8.77
2023-01-22T07:16:32.027Z,8.77
2023-01-22T07:18:59.974Z,8.84
2023-01-22T07:21:28.222Z,8.84
2023-01-22T07:23:56.108Z,8.83
2023-01-22T07:26:25.348Z,8.89
2023-01-22T07:28:53.190Z,8.91
2023-01-22T07:31:21.134Z,8.91
2023-01-22T07:33:49.065Z,8.93
2023-01-22T07:36:16.946Z,8.97
2023-01-22T07:38:44.831Z,8.97
2023-01-22T07:41:25.154Z,9.01
2023-01-22T07:43:57.646Z,9.06
2023-01-22T07:46:25.591Z,9.09
2023-01-22T07:48:53.554Z,9.11
2023-01-22T07:51:21.548Z,9.12
2023-01-22T07:53:49.453Z,9.13
2023-01-22T07:56:19.073Z,9.14
2023-01-22T07:58:46.939Z,9.11
2023-01-22T08:01:17.093Z,9.16
2023-01-22T08:03:45.352Z,9.13
2023-01-22T08:06:14.363Z,9.16
2023-01-22T08:08:45.056Z,9.20
2023-01-22T08:11:12.889Z,9.21
2023-01-22T08:13:40.901Z,9.21
2023-01-22T08:16:09.834Z,9.23
2023-01-22T08:18:39.098Z,9.25
2023-01-22T08:21:07.262Z,9.24
2023-01-22T08:23:35.212Z,9.18
2023-01-22T08:26:04.023Z,9.25
2023-01-22T08:28:32.351Z,9.23
2023-01-22T08:31:00.427Z,9.03
2023-01-22T08:33:28.378Z,9.24
2023-01-22T08:35:57.648Z,9.27
2023-01-22T08:38:25.610Z,9.25
2023-01-22T08:40:53.626Z,9.24
2023-01-22T08:43:21.548Z,9.23
2023-01-22T08:45:49.739Z,9.21
2023-01-22T08:48:17.750Z,9.18
2023-01-22T08:50:45.651Z,9.18
2023-01-22T08:53:14.894Z,9.20
2023-01-22T08:55:42.750Z,9.19
2023-01-22T08:58:10.597Z,9.20
2023-01-22T09:00:38.502Z,9.20
2023-01-22T09:03:06.348Z,9.22
2023-01-22T09:05:34.214Z,9.22
2023-01-22T09:08:02.081Z,9.21
2023-01-22T09:10:31.380Z,9.23
2023-01-22T09:13:00.028Z,9.22
2023-01-22T09:15:28.010Z,9.26
2023-01-22T09:17:55.907Z,9.30
2023-01-22T09:20:23.954Z,9.35
2023-01-22T09:22:51.817Z,9.40
2023-01-22T09:25:20.508Z,9.48
2023-01-22T09:27:49.786Z,9.54
2023-01-22T09:30:18.219Z,9.61
2023-01-22T09:32:46.207Z,9.68
2023-01-22T09:35:16.400Z,9.76
2023-01-22T09:37:44.620Z,9.82
2023-01-22T09:40:17.135Z,9.82
2023-01-22T09:42:45.233Z,9.96
2023-01-22T09:45:15.085Z,10.01
2023-01-22T09:47:44.104Z,10.05
2023-01-22T09:50:16.257Z,10.13
2023-01-22T09:52:44.466Z,10.21
2023-01-22T09:55:13.797Z,10.32
2023-01-22T09:57:43.081Z,10.39
2023-01-22T10:00:17.333Z,10.50
2023-01-22T10:02:46.205Z,10.60
2023-01-22T10:05:19.235Z,10.70
2023-01-22T10:07:51.839Z,10.76
2023-01-22T10:10:21.167Z,10.83
2023-01-22T10:12:51.357Z,10.91
2023-01-22T10:15:21.796Z,10.95
2023-01-22T10:17:49.690Z,11.07
2023-01-22T10:20:18.957Z,11.12
2023-01-22T10:22:48.953Z,11.19
2023-01-22T10:25:17.411Z,11.24
2023-01-22T10:27:45.623Z,11.31
2023-01-22T10:30:21.538Z,11.38
2023-01-22T10:32:59.559Z,11.49
2023-01-22T10:35:27.893Z,11.54
2023-01-22T10:37:56.842Z,11.60
2023-01-22T10:40:26.568Z,11.68
2023-01-22T10:43:05.887Z,11.72
2023-01-22T10:45:35.134Z,11.71
2023-01-22T10:48:13.938Z,11.76
2023-01-22T10:50:42.241Z,11.74
2023-01-22T10:53:20.736Z,11.71
2023-01-22T10:55:55.664Z,11.71
2023-01-22T10:58:25.014Z,11.64
2023-01-22T11:01:02.715Z,11.59
2023-01-22T11:03:32.833Z,11.52
2023-01-22T11:06:02.225Z,11.48
2023-01-22T11:08:31.437Z,11.47
2023-01-22T11:11:00.931Z,11.43
2023-01-22T11:13:31.278Z,11.35
2023-01-22T11:16:02.900Z,11.35
2023-01-22T11:18:32.988Z,11.36
2023-01-22T11:21:01.749Z,11.34
2023-01-22T11:23:34.579Z,11.37
2023-01-22T11:26:04.851Z,11.36
2023-01-22T11:28:41.730Z,11.37
2023-01-22T11:31:40.894Z,11.34
2023-01-22T11:34:37.076Z,11.32
2023-01-22T11:37:09.167Z,11.30
2023-01-22T11:39:45.405Z,11.36
2023-01-22T11:42:20.744Z,11.38
2023-01-22T11:44:55.840Z,11.38
2023-01-22T11:47:40.847Z,11.40
2023-01-22T11:50:26.837Z,11.45
2023-01-22T11:52:58.587Z,11.45
2023-01-22T11:55:56.109Z,11.50
2023-01-22T11:58:32.782Z,11.50
2023-01-22T12:01:10.038Z,11.51
2023-01-22T12:03:59.920Z,11.61
2023-01-22T12:06:39.665Z,11.59
2023-01-22T12:09:09.896Z,11.64
2023-01-22T12:11:51.848Z,11.62
2023-01-22T12:14:30.217Z,11.71
2023-01-22T12:17:03.871Z,11.74
2023-01-22T12:19:55.826Z,11.79
2023-01-22T12:22:29.926Z,11.81
2023-01-22T12:25:00.308Z,11.86
2023-01-22T12:27:30.291Z,11.91
2023-01-22T12:30:01.920Z,11.97
2023-01-22T12:32:30.687Z,12.00
2023-01-22T12:35:01.772Z,12.06
2023-01-22T12:37:33.074Z,12.09
2023-01-22T12:40:11.462Z,12.10
2023-01-22T12:42:42.044Z,12.16
2023-01-22T12:45:19.028Z,12.19
2023-01-22T12:47:50.079Z,12.19
2023-01-22T12:50:21.144Z,12.23
2023-01-22T12:52:59.054Z,12.24
2023-01-22T12:55:32.320Z,12.21
2023-01-22T12:58:00.329Z,12.27
2023-01-22T13:00:34.546Z,12.31
2023-01-22T13:03:04.386Z,12.35
2023-01-22T13:05:42.663Z,12.44
2023-01-22T13:08:25.482Z,12.48
2023-01-22T13:10:55.033Z,12.57
2023-01-22T13:13:28.851Z,12.60
2023-01-22T13:15:58.669Z,12.65
2023-01-22T13:18:27.566Z,12.67
2023-01-22T13:21:02.803Z,12.69
2023-01-22T13:23:31.646Z,12.73
2023-01-22T13:25:59.733Z,12.73
2023-01-22T13:28:27.897Z,12.78
2023-01-22T13:31:00.508Z,12.81
2023-01-22T13:33:28.546Z,12.84
2023-01-22T13:35:57.937Z,12.89
2023-01-22T13:38:27.066Z,12.79
2023-01-22T13:40:56.715Z,12.92
2023-01-22T13:43:24.717Z,12.91
2023-01-22T13:45:53.176Z,12.93
2023-01-22T13:48:22.346Z,12.96
2023-01-22T13:50:54.065Z,12.97
2023-01-22T13:53:32.794Z,13.00
2023-01-22T13:56:01.250Z,12.99
2023-01-22T13:58:49.396Z,13.02
2023-01-22T14:01:28.222Z,13.05
2023-01-22T14:04:00.482Z,13.06
2023-01-22T14:06:28.582Z,13.02
2023-01-22T14:08:58.546Z,13.09
2023-01-22T14:11:26.581Z,13.11
2023-01-22T14:13:54.586Z,13.14
2023-01-22T14:16:22.754Z,13.15
2023-01-22T14:18:50.691Z,13.15
2023-01-22T14:21:18.593Z,13.20
2023-01-22T14:23:46.589Z,13.20
2023-01-22T14:26:15.890Z,13.23
2023-01-22T14:28:43.823Z,13.24
2023-01-22T14:31:11.839Z,13.24
2023-01-22T14:33:39.705Z,13.21
2023-01-22T14:36:08.503Z,13.23
2023-01-22T14:38:36.397Z,13.27
2023-01-22T14:41:04.805Z,13.31
2023-01-22T14:43:34.100Z,13.37
2023-01-22T14:46:02.004Z,13.38
2023-01-22T14:48:29.976Z,13.38
2023-01-22T14:50:57.954Z,13.38
2023-01-22T14:53:25.972Z,13.41
2023-01-22T14:55:53.837Z,13.46
2023-01-22T14:58:21.745Z,13.48
2023-01-22T15:00:51.093Z,13.43
2023-01-22T15:03:19.018Z,13.42
2023-01-22T15:05:46.973Z,13.41
2023-01-22T15:08:14.867Z,13.44
2023-01-22T15:10:42.816Z,13.46
2023-01-22T15:13:10.796Z,13.47
2023-01-22T15:15:38.743Z,13.45
2023-01-22T15:18:08.071Z,13.46
2023-01-22T15:20:36.038Z,13.45
2023-01-22T15:23:03.955Z,13.45
2023-01-22T15:25:33.025Z,13.41
2023-01-22T15:28:00.939Z,13.39
2023-01-22T15:30:28.870Z,13.38
2023-01-22T15:32:56.773Z,13.32
2023-01-22T15:35:26.080Z,13.29
2023-01-22T15:37:53.945Z,13.26
2023-01-22T15:40:22.182Z,13.24
2023-01-22T15:42:50.089Z,13.22
2023-01-22T15:45:18.064Z,13.19
2023-01-22T15:47:46.025Z,13.14
2023-01-22T15:50:20.227Z,13.09
2023-01-22T15:52:53.372Z,13.06
2023-01-22T15:55:21.309Z,13.03
2023-01-22T15:57:49.263Z,13.00
2023-01-22T16:00:17.893Z,12.96
2023-01-22T16:02:46.015Z,12.93
2023-01-22T16:05:14.012Z,12.84
2023-01-22T16:07:41.919Z,12.79
2023-01-22T16:10:12.410Z,12.73
2023-01-22T16:12:40.298Z,12.69
2023-01-22T16:15:09.214Z,12.66
2023-01-22T16:17:37.104Z,12.59
2023-01-22T16:20:06.410Z,12.57
2023-01-22T16:22:34.329Z,12.48
2023-01-22T16:25:02.233Z,12.44
2023-01-22T16:27:31.636Z,12.39
2023-01-22T16:29:59.829Z,12.36
2023-01-22T16:32:27.752Z,12.28
2023-01-22T16:34:55.621Z,12.23
2023-01-22T16:37:23.499Z,12.15
2023-01-22T16:39:51.399Z,12.11
2023-01-22T16:42:22.239Z,12.06
2023-01-22T16:44:51.649Z,12.00
2023-01-22T16:47:20.322Z,11.92
2023-01-22T16:49:48.896Z,11.91
2023-01-22T16:52:22.807Z,11.84
2023-01-22T16:54:51.066Z,11.78
2023-01-22T16:57:19.570Z,11.73
2023-01-22T16:59:47.498Z,11.66
2023-01-22T17:02:17.014Z,11.61
2023-01-22T17:04:45.324Z,11.55
2023-01-22T17:07:31.963Z,11.46
2023-01-22T17:10:01.319Z,11.39
2023-01-22T17:12:31.012Z,11.32
2023-01-22T17:14:58.924Z,11.27
2023-01-22T17:17:28.202Z,11.25
2023-01-22T17:19:56.166Z,11.21
2023-01-22T17:22:24.253Z,11.17
2023-01-22T17:24:52.690Z,11.13
2023-01-22T17:27:21.556Z,11.09
2023-01-22T17:29:49.457Z,11.05
2023-01-22T17:32:17.441Z,10.99
2023-01-22T17:34:46.957Z,10.94
2023-01-22T17:37:14.838Z,10.89
2023-01-22T17:39:43.504Z,10.85
2023-01-22T17:42:11.368Z,10.78
2023-01-22T17:44:40.896Z,10.73
2023-01-22T17:47:08.946Z,10.65
2023-01-22T17:49:36.928Z,10.61
2023-01-22T17:52:06.823Z,10.55
2023-01-22T17:54:34.797Z,10.56
2023-01-22T17:57:02.656Z,10.57
2023-01-22T17:59:30.573Z,10.57
2023-01-22T18:01:59.804Z,10.56
2023-01-22T18:04:27.686Z,10.55
2023-01-22T18:06:55.631Z,10.40
2023-01-22T18:09:25.051Z,10.47
2023-01-22T18:11:52.938Z,10.43
2023-01-22T18:14:22.927Z,10.40
2023-01-22T18:16:50.937Z,10.40
2023-01-22T18:19:19.090Z,10.42
2023-01-22T18:21:47.001Z,10.43
2023-01-22T18:24:15.024Z,10.43
2023-01-22T18:26:44.298Z,10.43
2023-01-22T18:29:12.326Z,10.44
2023-01-22T18:31:40.329Z,10.46
2023-01-22T18:34:08.726Z,10.43
2023-01-22T18:36:37.435Z,10.41
2023-01-22T18:39:06.462Z,10.36
2023-01-22T18:41:34.403Z,10.37
2023-01-22T18:44:03.692Z,10.33
2023-01-22T18:46:33.560Z,10.32
2023-01-22T18:49:02.387Z,10.28
2023-01-22T18:51:30.505Z,10.28
2023-01-22T18:53:59.328Z,10.28
2023-01-22T18:56:27.213Z,10.27
2023-01-22T18:58:55.317Z,10.27
2023-01-22T19:01:25.472Z,10.23
2023-01-22T19:03:54.431Z,10.18
2023-01-22T19:06:23.228Z,10.14
2023-01-22T19:08:58.507Z,10.11
2023-01-22T19:11:26.673Z,10.10
2023-01-22T19:13:54.675Z,10.10
2023-01-22T19:16:24.342Z,10.11
2023-01-22T19:18:55.027Z,10.13
2023-01-22T19:21:23.088Z,10.12
2023-01-22T19:23:51.750Z,10.14
2023-01-22T19:26:22.149Z,10.14
2023-01-22T19:28:50.097Z,10.17
2023-01-22T19:31:18.769Z,10.19
2023-01-22T19:33:48.246Z,10.22
2023-01-22T19:36:16.398Z,10.25
2023-01-22T19:38:44.403Z,10.29
2023-01-22T19:41:16.051Z,10.29
2023-01-22T19:43:43.944Z,10.29
2023-01-22T19:46:13.220Z,10.29
2023-01-22T19:48:41.310Z,10.29
2023-01-22T19:51:11.621Z,10.28
2023-01-22T19:53:39.963Z,10.27
2023-01-22T19:56:17.747Z,10.30
2023-01-22T19:58:46.640Z,10.33
2023-01-22T20:01:14.698Z,10.33
2023-01-22T20:03:42.644Z,10.36
2023-01-22T20:06:12.703Z,10.40
2023-01-22T20:08:40.600Z,10.44
2023-01-22T20:11:09.266Z,10.46
2023-01-22T20:13:37.503Z,10.48
2023-01-22T20:16:06.679Z,10.43
2023-01-22T20:18:34.687Z,10.48
2023-01-22T20:21:03.954Z,10.44
2023-01-22T20:23:33.249Z,10.43
2023-01-22T20:26:02.836Z,10.40
2023-01-22T20:28:30.725Z,10.36
2023-01-22T20:30:59.470Z,10.35
2023-01-22T20:33:27.611Z,10.34
2023-01-22T20:35:56.901Z,10.33
2023-01-22T20:38:24.945Z,10.31
2023-01-22T20:40:54.271Z,10.29
2023-01-22T20:43:22.167Z,10.28
2023-01-22T20:45:58.997Z,10.28
2023-01-22T20:48:26.955Z,10.25
2023-01-22T20:50:54.876Z,10.26
2023-01-22T20:53:22.919Z,10.27
2023-01-22T20:56:00.536Z,10.27
2023-01-22T20:58:28.524Z,10.27
2023-01-22T21:00:56.654Z,10.28
2023-01-22T21:03:25.265Z,10.27
2023-01-22T21:05:53.158Z,10.24
2023-01-22T21:08:21.042Z,10.22
2023-01-22T21:10:56.824Z,10.21
2023-01-22T21:13:26.301Z,10.18
2023-01-22T21:15:54.419Z,10.18
2023-01-22T21:18:22.689Z,10.17
2023-01-22T21:20:54.071Z,10.19
2023-01-22T21:23:21.966Z,10.19
2023-01-22T21:25:49.870Z,10.16
2023-01-22T21:28:17.846Z,10.16
2023-01-22T21:30:47.188Z,10.18
2023-01-22T21:33:16.491Z,10.19
2023-01-22T21:35:49.497Z,10.22
2023-01-22T21:38:17.347Z,10.24
2023-01-22T21:40:45.248Z,10.25
2023-01-22T21:43:31.670Z,10.20
2023-01-22T21:46:18.774Z,10.25
2023-01-22T21:48:46.750Z,10.24
2023-01-22T21:51:14.747Z,10.26
2023-01-22T21:53:42.682Z,10.26
2023-01-22T21:56:10.626Z,10.29
2023-01-22T21:58:42.334Z,10.22
2023-01-22T22:01:12.335Z,10.27
2023-01-22T22:03:40.304Z,10.29
2023-01-22T22:06:08.766Z,10.29
2023-01-22T22:08:37.572Z,10.26
2023-01-22T22:11:05.701Z,10.20
2023-01-22T22:13:35.085Z,10.22
2023-01-22T22:16:03.323Z,10.22
2023-01-22T22:18:32.575Z,10.19
2023-01-22T22:21:00.958Z,10.18
2023-01-22T22:23:29.029Z,10.18
2023-01-22T22:25:56.865Z,10.17
2023-01-22T22:28:24.864Z,10.11
2023-01-22T22:30:52.814Z,10.13
2023-01-22T22:33:20.762Z,10.10
2023-01-22T22:35:50.046Z,10.10
2023-01-22T22:38:18.001Z,10.09
2023-01-22T22:40:45.923Z,10.08
2023-01-22T22:43:15.755Z,10.04
2023-01-22T22:45:43.717Z,10.00
2023-01-22T22:48:11.574Z,9.91
2023-01-22T22:50:41.052Z,9.82
2023-01-22T22:53:10.293Z,9.72
2023-01-22T22:55:41.285Z,9.68
2023-01-22T22:58:09.576Z,9.61
2023-01-22T23:00:38.181Z,9.51
2023-01-22T23:03:06.199Z,9.40
2023-01-22T23:05:37.645Z,9.34
2023-01-22T23:08:05.861Z,9.26
2023-01-22T23:10:35.196Z,9.17
2023-01-22T23:13:03.571Z,9.10
2023-01-22T23:15:31.829Z,9.02
2023-01-22T23:17:59.997Z,8.98
2023-01-22T23:20:27.890Z,8.93
2023-01-22T23:22:56.150Z,8.88
2023-01-22T23:25:24.048Z,8.82
2023-01-22T23:27:53.325Z,8.74
2023-01-22T23:30:21.485Z,8.60
2023-01-22T23:32:49.563Z,8.69
2023-01-22T23:35:17.495Z,8.63
2023-01-22T23:37:45.381Z,8.61
2023-01-22T23:40:13.989Z,8.58
2023-01-22T23:42:41.840Z,8.54
2023-01-22T23:45:12.401Z,8.49
2023-01-22T23:47:40.290Z,8.43
2023-01-22T23:50:10.269Z,8.38
2023-01-22T23:52:38.717Z,8.32
2023-01-22T23:55:07.420Z,8.29
2023-01-22T23:57:35.281Z,8.26
